Time;durP1;ratioP1;P1;durP2;ratioP2;P2;SDS_P1;SDS_P2;PMS_P1;PMS_P2;Temp;Humidity;BMP_temperature;BMP_pressure;BME280_temperature;BME280_humidity;BME280_pressure;Samples;Min_cycle;Max_cycle;Signal;HPM_P1;HPM_P2
2022/01/14 00:01:36;;;;;;;61.63;23.20;;;;;;;-6.54;69.57;96456.81;5012063;28;20038;-79
2022/01/14 00:04:02;;;;;;;62.93;25.27;;;;;;;-6.54;69.69;96451.66;4979293;28;20523;-79
2022/01/14 00:06:27;;;;;;;61.30;26.10;;;;;;;-6.39;69.55;96483.00;4979172;28;20049;-79
2022/01/14 00:09:04;;;;;;;71.70;24.17;;;;;;;-6.47;69.44;96451.91;4979223;28;20069;-80
2022/01/14 00:11:31;;;;;;;67.03;25.60;;;;;;;-5.98;69.31;96520.63;4996877;28;20413;-80
2022/01/14 00:14:07;;;;;;;60.70;23.13;;;;;;;-6.46;69.28;96438.06;5011893;28;20038;-80
2022/01/14 00:16:33;;;;;;;59.10;23.45;;;;;;;-6.12;69.57;96502.97;4979443;28;20050;-79
2022/01/14 00:18:59;;;;;;;60.63;22.83;;;;;;;-6.00;69.04;96523.34;4979008;28;20457;-79
2022/01/14 00:21:26;;;;;;;60.93;22.83;;;;;;;-6.17;69.13;96487.06;5028014;28;20417;-80
2022/01/14 00:24:03;;;;;;;55.13;22.40;;;;;;;-6.27;68.97;96471.59;4978956;28;20038;-79
2022/01/14 00:32:01;;;;;;;62.15;24.35;;;;;;;-6.12;68.89;96519.28;4996763;28;20073;-79
2022/01/14 00:34:26;;;;;;;58.50;21.63;;;;;;;-5.99;69.40;96544.81;4979888;28;20041;-79
2022/01/14 00:36:51;;;;;;;62.20;24.00;;;;;;;-6.53;69.18;96467.94;5017084;28;20366;-79
2022/01/14 00:39:17;;;;;;;58.53;22.80;;;;;;;-6.18;69.39;96516.44;4981442;28;20034;-79
2022/01/14 00:41:43;;;;;;;55.83;22.90;;;;;;;-5.96;69.01;96547.94;4979034;28;20045;-80
2022/01/14 00:44:14;;;;;;;59.17;21.80;;;;;;;-5.78;68.56;96557.53;4996328;28;20108;-79
2022/01/14 00:46:42;;;;;;;60.13;22.45;;;;;;;-5.70;68.22;96558.47;4994929;28;20034;-79
2022/01/14 00:49:09;;;;;;;60.47;22.77;;;;;;;-5.64;68.36;96554.50;4978746;28;20126;-79
2022/01/14 00:51:35;;;;;;;62.17;22.70;;;;;;;-6.22;67.93;96477.16;4977812;28;20045;-79
2022/01/14 00:54:04;;;;;;;56.38;22.77;;;;;;;-5.63;67.90;96564.69;4994322;28;20498;-79
2022/01/14 00:56:34;;;;;;;57.38;23.23;;;;;;;-5.93;68.51;96533.91;4994352;28;20045;-79
2022/01/14 00:59:15;;;;;;;54.15;20.42;;;;;;;-6.15;68.62;96487.75;4995388;28;20122;-79
2022/01/14 01:01:51;;;;;;;55.75;22.23;;;;;;;-5.61;67.65;96562.78;5011056;28;20050;-80
2022/01/14 01:04:26;;;;;;;54.67;22.08;;;;;;;-5.80;68.34;96549.13;4978052;28;20128;-80
2022/01/14 01:06:51;;;;;;;55.75;21.90;;;;;;;-6.64;67.75;96412.94;4979193;28;20049;-81
2022/01/14 01:09:20;;;;;;;52.25;21.30;;;;;;;-6.17;68.41;96487.88;3554333;28;10020783;-80
2022/01/14 01:11:53;;;;;;;61.67;23.90;;;;;;;-5.98;67.54;96508.53;1717728;28;10002102;-81
2022/01/14 01:14:38;;;;;;;54.90;21.55;;;;;;;-5.69;67.49;96526.50;4952036;28;21861;-81
2022/01/14 01:17:04;;;;;;;51.87;20.67;;;;;;;-5.90;67.80;96497.50;340804;28;10022836;-80
2022/01/14 01:19:30;;;;;;;55.08;21.30;;;;;;;-6.02;67.00;96485.69;4998851;28;20034;-80
2022/01/14 01:21:55;;;;;;;58.20;22.98;;;;;;;-5.59;67.18;96536.81;5031846;28;20041;-80
2022/01/14 01:24:21;;;;;;;57.17;21.07;;;;;;;-5.94;67.49;96483.22;5015846;28;20115;-80
2022/01/14 01:26:49;;;;;;;55.80;21.27;;;;;;;-5.75;66.86;96493.47;5016952;28;20034;-80
2022/01/14 01:29:42;;;;;;;53.47;19.93;;;;;;;-5.61;67.11;96523.22;4998114;28;20120;-81
2022/01/14 01:32:04;;;;;;;55.03;20.85;;;;;;;-5.61;67.55;96518.03;5016563;28;20038;-82
2022/01/14 01:34:30;;;;;;;59.23;20.47;;;;;;;-6.34;66.82;96416.31;5016224;28;20576;-81
2022/01/14 01:36:57;;;;;;;52.45;20.90;;;;;;;-5.86;66.93;96476.34;4997953;28;20069;-81
2022/01/14 01:39:28;;;;;;;51.67;21.10;;;;;;;-5.96;66.39;96459.31;5016108;28;20606;-81
2022/01/14 01:41:56;;;;;;;49.47;19.55;;;;;;;-5.65;66.69;96477.94;4998204;28;20034;-81
2022/01/14 01:44:23;;;;;;;60.97;21.77;;;;;;;-5.66;66.49;96495.22;4997605;28;20054;-81
2022/01/14 01:46:50;;;;;;;52.33;19.90;;;;;;;-5.82;66.06;96434.75;4997565;28;20030;-81
2022/01/14 01:49:20;;;;;;;61.53;22.53;;;;;;;-5.73;66.51;96475.25;4998074;28;20099;-80
2022/01/14 01:51:47;;;;;;;52.20;21.75;;;;;;;-5.46;67.18;96520.03;5016621;28;20026;-81
2022/01/14 01:54:13;;;;;;;56.47;21.67;;;;;;;-5.64;67.07;96495.88;5015898;28;20572;-81
2022/01/14 01:56:39;;;;;;;56.22;21.63;;;;;;;-5.78;67.02;96487.75;5031739;28;20037;-80
2022/01/14 01:59:05;;;;;;;57.80;21.77;;;;;;;-5.58;67.15;96495.31;5034192;28;20429;-81
2022/01/14 02:01:31;;;;;;;59.95;22.83;;;;;;;-6.06;66.93;96445.59;5035413;28;20101;-80
2022/01/14 02:03:57;;;;;;;50.28;21.00;;;;;;;-5.50;67.08;96492.84;5020111;28;20034;-81
2022/01/14 02:06:23;;;;;;;62.30;21.07;;;;;;;-5.76;66.83;96449.69;5019272;28;20030;-81
2022/01/14 02:08:49;;;;;;;53.67;20.90;;;;;;;-5.77;66.24;96430.78;5017313;28;20057;-82
2022/01/14 02:11:16;;;;;;;50.55;20.02;;;;;;;-5.40;66.45;96489.38;5032531;28;20117;-82
2022/01/14 02:13:42;;;;;;;53.47;21.65;;;;;;;-5.96;66.38;96398.13;5017292;28;20044;-82
2022/01/14 02:23:49;;;;;;;54.67;20.65;;;;;;;-5.57;66.17;96441.88;5019582;28;20436;-81
2022/01/14 02:26:17;;;;;;;56.15;21.20;;;;;;;-5.93;65.91;96377.16;5001236;28;20113;-83
2022/01/14 02:28:43;;;;;;;53.00;22.60;;;;;;;-5.66;65.95;96416.88;5033913;28;20081;-81
2022/01/14 02:31:08;;;;;;;52.85;21.38;;;;;;;-5.95;65.40;96365.38;5018408;28;20022;-81
2022/01/14 02:33:34;;;;;;;57.07;22.47;;;;;;;-5.75;66.13;96407.38;5018703;28;20053;-81
2022/01/14 02:36:01;;;;;;;54.00;21.33;;;;;;;-6.14;65.61;96344.78;5033521;28;20030;-81
2022/01/14 02:38:26;;;;;;;45.25;19.15;;;;;;;-5.82;65.22;96396.81;5019017;28;20042;-80
2022/01/14 02:40:52;;;;;;;51.57;20.33;;;;;;;-6.00;64.80;96378.69;5032398;28;20111;-81
2022/01/14 02:43:17;;;;;;;45.35;18.98;;;;;;;-5.77;65.06;96409.28;5017539;28;20026;-80
2022/01/14 02:45:49;;;;;;;60.83;21.20;;;;;;;-5.39;65.62;96447.88;5018600;28;20104;-81
2022/01/14 02:48:20;;;;;;;49.70;18.43;;;;;;;-5.52;65.12;96417.22;5016580;28;20133;-81
2022/01/14 02:51:19;;;;;;;51.97;20.00;;;;;;;-5.56;64.99;96418.44;5014629;28;20555;-82
2022/01/14 02:56:09;;;;;;;47.22;20.35;;;;;;;-6.55;64.93;96241.00;5016860;28;20576;-82
2022/01/14 02:58:36;;;;;;;51.63;20.25;;;;;;;-5.36;65.35;96437.25;5016563;28;20042;-81
2022/01/14 03:01:13;;;;;;;53.72;19.50;;;;;;;-5.83;65.44;96361.59;5032431;28;20390;-82
2022/01/14 03:03:40;;;;;;;50.93;19.23;;;;;;;-6.02;65.66;96310.84;5032304;28;20103;-82
2022/01/14 03:06:06;;;;;;;52.33;21.23;;;;;;;-5.89;64.88;96326.03;4999769;28;20624;-82
2022/01/14 03:08:33;;;;;;;52.65;20.02;;;;;;;-5.28;65.31;96428.78;5017936;28;20065;-82
2022/01/14 03:11:05;;;;;;;58.78;22.15;;;;;;;-5.49;65.21;96382.47;5016390;28;20030;-82
2022/01/14 03:13:30;;;;;;;51.53;19.67;;;;;;;-5.90;65.59;96312.31;5032327;28;20384;-82
2022/01/14 03:16:11;;;;;;;55.42;16.88;;;;;;;-5.52;65.36;96360.34;1814497;28;10021751;-81
2022/01/14 03:18:44;;;;;;;50.92;20.23;;;;;;;-5.31;64.66;96401.44;3965628;28;10001284;-81
2022/01/14 03:21:11;;;;;;;51.22;21.08;;;;;;;-5.35;65.01;96394.94;5017942;28;20040;-81
2022/01/14 03:23:44;;;;;;;52.25;19.65;;;;;;;-5.36;65.38;96392.50;5017610;28;20415;-81
2022/01/14 03:26:12;;;;;;;52.58;21.05;;;;;;;-5.34;65.44;96382.81;5032900;28;20069;-81
2022/01/14 03:28:37;;;;;;;54.60;19.80;;;;;;;-5.97;64.88;96274.28;5000119;28;20034;-82
2022/01/14 03:31:03;;;;;;;51.67;18.48;;;;;;;-5.94;64.87;96279.97;5017395;28;20420;-82
2022/01/14 03:33:28;;;;;;;42.20;17.80;;;;;;;-5.43;64.74;96361.25;5032401;28;20041;-82
2022/01/14 03:35:54;;;;;;;54.80;19.25;;;;;;;-5.41;64.13;96348.97;5017374;28;20041;-82
2022/01/14 03:38:19;;;;;;;54.10;21.60;;;;;;;-5.71;64.53;96308.75;4999560;28;20037;-81
2022/01/14 03:40:45;;;;;;;49.53;18.88;;;;;;;-5.27;64.54;96373.53;5018199;28;20453;-81
2022/01/14 03:43:11;;;;;;;45.13;17.73;;;;;;;-5.81;63.93;96278.78;4999956;28;20042;-81
2022/01/14 03:45:38;;;;;;;41.63;16.58;;;;;;;-5.62;63.67;96294.16;4999905;28;20053;-81
2022/01/14 03:48:06;;;;;;;52.03;17.60;;;;;;;-5.47;63.69;96329.69;5018133;28;20503;-81
2022/01/14 03:50:31;;;;;;;42.38;17.30;;;;;;;-6.04;63.49;96232.72;5017787;28;20493;-81
2022/01/14 03:52:56;;;;;;;46.13;17.02;;;;;;;-5.55;63.96;96310.69;5000182;28;20068;-81
2022/01/14 03:55:22;;;;;;;52.42;18.90;;;;;;;-5.65;63.00;96300.44;5018047;28;20044;-81
2022/01/14 03:57:48;;;;;;;51.42;19.80;;;;;;;-5.54;63.19;96328.66;5033643;28;20520;-81
2022/01/14 04:00:14;;;;;;;48.30;18.83;;;;;;;-5.51;62.63;96338.72;5018016;28;20048;-81
2022/01/14 04:02:39;;;;;;;57.28;19.70;;;;;;;-5.45;62.95;96326.97;5033331;28;20037;-81
2022/01/14 04:05:05;;;;;;;48.47;19.92;;;;;;;-5.16;63.03;96365.53;5017938;28;20029;-82
2022/01/14 04:07:31;;;;;;;45.78;19.05;;;;;;;-5.60;61.98;96293.06;5021076;28;20103;-81
2022/01/14 04:09:56;;;;;;;54.90;18.23;;;;;;;-5.47;61.76;96323.69;5022133;28;20030;-81
2022/01/14 04:12:34;;;;;;;49.08;18.83;;;;;;;-5.54;62.59;96302.78;5001110;28;20068;-81
2022/01/14 04:17:25;;;;;;;51.85;18.52;;;;;;;-5.80;62.41;96239.88;5018888;28;20080;-81
2022/01/14 04:19:50;;;;;;;59.58;21.75;;;;;;;-5.16;62.22;96348.25;5019122;28;20069;-81
2022/01/14 04:22:16;;;;;;;57.88;20.08;;;;;;;-5.12;62.56;96352.19;5018554;28;20120;-81
2022/01/14 04:24:41;;;;;;;63.25;19.77;;;;;;;-5.16;63.55;96337.09;5018829;28;20542;-81
2022/01/14 04:27:07;;;;;;;55.25;19.27;;;;;;;-5.51;62.96;96302.50;5033494;28;20477;-82
2022/01/14 04:29:32;;;;;;;57.00;20.65;;;;;;;-5.80;62.59;96254.56;5034831;28;20030;-81
2022/01/14 04:31:59;;;;;;;56.05;19.67;;;;;;;-5.41;62.70;96314.53;5022655;28;20045;-81
2022/01/14 04:34:25;;;;;;;57.60;20.67;;;;;;;-5.58;62.85;96293.72;5005087;28;20099;-81
2022/01/14 04:36:50;;;;;;;55.03;19.05;;;;;;;-6.29;62.90;96190.34;5003785;28;20050;-81
2022/01/14 04:39:16;;;;;;;52.65;20.33;;;;;;;-5.77;62.33;96239.56;5022123;28;20053;-81
2022/01/14 04:41:41;;;;;;;45.65;18.38;;;;;;;-5.64;62.50;96265.03;5037567;28;20034;-82
2022/01/14 04:44:07;;;;;;;49.60;20.48;;;;;;;-5.72;62.28;96265.00;5005695;28;20115;-81
2022/01/14 04:49:07;;;;;;;47.60;18.63;;;;;;;-5.72;62.15;96255.44;5022210;28;20492;-81
2022/01/14 04:51:33;;;;;;;50.13;18.67;;;;;;;-5.51;62.04;96268.91;5004168;28;20065;-81
2022/01/14 04:53:59;;;;;;;46.08;18.60;;;;;;;-5.45;62.43;96303.69;5002408;28;20053;-82
2022/01/14 04:56:24;;;;;;;38.83;18.23;;;;;;;-5.10;62.54;96339.06;5003115;28;20034;-82
2022/01/14 04:58:50;;;;;;;49.03;18.53;;;;;;;-5.51;62.31;96287.00;5021353;28;20038;-82
2022/01/14 05:01:15;;;;;;;45.95;19.00;;;;;;;-5.47;62.22;96293.50;5035631;28;20034;-82
2022/01/14 05:03:41;;;;;;;60.63;21.13;;;;;;;-5.09;62.43;96309.66;5035938;28;20057;-82
2022/01/14 05:06:07;;;;;;;50.08;19.48;;;;;;;-4.95;62.60;96329.00;5023309;28;20033;-82
2022/01/14 05:08:38;;;;;;;43.63;18.27;;;;;;;-5.66;62.33;96223.06;5036014;28;20034;-82
2022/01/14 05:13:42;;;;;;;50.33;19.92;;;;;;;-5.07;62.22;96292.22;5019451;28;20111;-82
2022/01/14 05:16:08;;;;;;;56.90;21.50;;;;;;;-4.94;62.30;96318.50;5029971;28;20497;-82
2022/01/14 05:18:39;;;;;;;;;;;;;;;-5.71;62.16;96176.97;1498405;28;10021982;-81
2022/01/14 05:21:05;;;;;;;56.45;19.15;;;;;;;-5.52;62.53;96231.09;3968050;28;10001047;-82
2022/01/14 05:23:31;;;;;;;48.63;19.77;;;;;;;-5.16;62.45;96295.69;5035146;28;20033;-83
2022/01/14 05:25:56;;;;;;;46.58;19.02;;;;;;;-5.46;62.85;96264.09;5016943;28;20064;-82
2022/01/14 05:28:22;;;;;;;58.75;20.17;;;;;;;-5.55;62.46;96246.88;5000283;28;20037;-82
2022/01/14 05:30:47;;;;;;;56.42;19.77;;;;;;;-5.19;62.63;96288.25;5017397;28;20034;-82
2022/01/14 05:33:15;;;;;;;47.67;19.58;;;;;;;-5.75;62.62;96208.44;5016491;28;20500;-82
2022/01/14 05:35:41;;;;;;;49.55;20.77;;;;;;;-5.02;62.91;96322.81;4998525;28;20065;-81
2022/01/14 05:38:07;;;;;;;49.25;18.38;;;;;;;-5.57;62.57;96240.25;5000955;28;20527;-82
2022/01/14 05:40:32;;;;;;;49.75;18.48;;;;;;;-5.34;63.03;96272.44;4998158;28;20100;-82
2022/01/14 05:42:59;;;;;;;45.80;18.60;;;;;;;-5.06;63.02;96306.78;5019052;28;20042;-82
2022/01/14 05:45:25;;;;;;;43.85;17.75;;;;;;;-5.04;62.66;96298.88;5017957;28;20050;-83
2022/01/14 05:47:50;;;;;;;40.00;17.08;;;;;;;-5.18;62.93;96276.94;5031444;28;20068;-82
2022/01/14 05:50:19;;;;;;;50.08;19.80;;;;;;;-5.98;62.93;96146.91;5000104;28;20057;-82
2022/01/14 05:52:45;;;;;;;46.35;19.17;;;;;;;-5.65;63.42;96188.50;5017491;28;20030;-82
2022/01/14 05:55:14;;;;;;;43.05;17.75;;;;;;;-5.21;63.00;96257.38;5000816;28;20524;-82
2022/01/14 05:57:40;;;;;;;54.28;18.55;;;;;;;-5.03;63.08;96300.50;5018340;28;20057;-81
2022/01/14 06:00:11;;;;;;;49.83;17.55;;;;;;;-5.40;63.49;96225.69;5018583;28;20053;-82
2022/01/14 06:02:36;;;;;;;41.47;17.00;;;;;;;-5.15;63.76;96266.28;5001319;28;20033;-81
2022/01/14 06:05:02;;;;;;;38.10;17.52;;;;;;;-5.52;63.47;96212.19;5019172;28;20042;-80
2022/01/14 06:07:27;;;;;;;46.97;17.20;;;;;;;-5.11;63.93;96260.66;5019418;28;20088;-81
2022/01/14 06:09:53;;;;;;;41.00;17.38;;;;;;;-5.52;63.48;96205.25;5017092;28;20107;-81
2022/01/14 06:12:18;;;;;;;40.30;16.45;;;;;;;-4.97;63.80;96279.22;5031775;28;20122;-81
2022/01/14 06:14:44;;;;;;;46.38;19.55;;;;;;;-5.26;63.27;96233.72;5031682;28;20081;-80
2022/01/14 06:17:09;;;;;;;45.17;18.42;;;;;;;-4.85;63.98;96291.75;5016388;28;20443;-81
2022/01/14 06:19:35;;;;;;;42.92;17.88;;;;;;;-5.46;63.72;96188.31;5016921;28;20462;-81
2022/01/14 06:22:00;;;;;;;41.20;18.00;;;;;;;-4.80;63.42;96286.91;5016929;28;20041;-80
2022/01/14 06:24:26;;;;;;;44.58;17.65;;;;;;;-5.94;63.05;96114.66;5017389;28;20061;-81
2022/01/14 06:26:51;;;;;;;47.65;17.30;;;;;;;-4.76;63.38;96285.66;5016835;28;20042;-80
2022/01/14 06:29:17;;;;;;;47.20;18.75;;;;;;;-5.24;63.24;96195.59;5032728;28;20056;-81
2022/01/14 06:31:44;;;;;;;49.83;17.60;;;;;;;-5.13;63.75;96204.88;5032184;28;20402;-80
2022/01/14 06:34:09;;;;;;;45.13;18.98;;;;;;;-5.41;63.60;96146.50;4999296;28;20034;-81
2022/01/14 06:36:35;;;;;;;55.80;18.50;;;;;;;-4.83;63.80;96235.47;5015591;28;20044;-81
2022/01/14 06:39:00;;;;;;;45.95;18.90;;;;;;;-4.37;64.06;96275.69;4997050;28;20057;-80
2022/01/14 06:41:26;;;;;;;50.67;18.60;;;;;;;-4.33;63.65;96281.38;5029246;28;20042;-81
2022/01/14 06:43:51;;;;;;;43.53;17.83;;;;;;;-4.86;63.67;96206.50;5015414;28;20065;-81
2022/01/14 06:46:17;;;;;;;45.38;17.77;;;;;;;-4.22;64.51;96283.69;5018382;28;20390;-81
2022/01/14 06:48:42;;;;;;;50.55;19.10;;;;;;;-4.58;63.82;96215.72;5017904;28;20061;-80
2022/01/14 06:51:14;;;;;;;50.80;18.15;;;;;;;-4.92;64.07;96163.94;5018094;28;20041;-80
2022/01/14 06:53:40;;;;;;;46.78;17.83;;;;;;;-4.66;64.15;96202.75;5001560;28;20034;-81
2022/01/14 06:56:05;;;;;;;54.58;18.50;;;;;;;-4.50;63.95;96197.59;5001492;28;20225;-81
2022/01/14 06:58:31;;;;;;;53.05;19.27;;;;;;;-4.03;64.15;96272.25;5033947;28;20087;-80
2022/01/14 07:00:56;;;;;;;44.03;20.42;;;;;;;-5.08;64.77;96091.44;5019189;28;20108;-81
2022/01/14 07:03:22;;;;;;;40.08;17.40;;;;;;;-3.88;65.11;96278.47;5001046;28;20049;-81
2022/01/14 07:05:48;;;;;;;53.75;17.98;;;;;;;-3.84;65.87;96263.44;5020562;28;20481;-80
2022/01/14 07:08:13;;;;;;;48.55;18.17;;;;;;;-4.31;65.41;96181.84;5034108;28;20041;-81
2022/01/14 07:10:48;;;;;;;38.45;17.08;;;;;;;-3.75;65.99;96252.94;5006405;28;20034;-82
2022/01/14 07:13:14;;;;;;;42.80;17.88;;;;;;;-4.30;65.52;96177.47;5002467;28;20374;-79
2022/01/14 07:15:39;;;;;;;42.10;17.65;;;;;;;-3.64;65.64;96233.66;5001765;28;20128;-80
2022/01/14 07:18:05;;;;;;;39.50;17.90;;;;;;;-3.65;65.78;96230.25;5033652;28;20133;-80
2022/01/14 07:20:30;;;;;;;46.22;18.95;;;;;;;-4.32;65.89;96123.25;5000993;28;20057;-80
2022/01/14 07:22:56;;;;;;;42.88;17.10;;;;;;;-4.67;65.67;96057.00;5033436;28;20065;-80
2022/01/14 07:25:21;;;;;;;52.30;18.50;;;;;;;-4.14;65.82;96140.44;5018264;28;20065;-80
2022/01/14 07:27:47;;;;;;;62.47;19.55;;;;;;;-3.69;65.34;96204.81;5033668;28;20097;-81
2022/01/14 07:30:16;;;;;;;40.45;17.73;;;;;;;-5.87;65.92;95872.81;5018195;28;20038;-81
2022/01/14 07:32:42;;;;;;;48.70;19.42;;;;;;;-3.60;65.39;96203.84;5032807;28;20098;-81
2022/01/14 07:35:08;;;;;;;43.92;19.13;;;;;;;-5.32;65.92;95928.41;4984137;28;20034;-81
2022/01/14 07:37:34;;;;;;;56.85;18.65;;;;;;;-3.50;65.32;96217.47;5018319;28;20041;-81
2022/01/14 07:39:59;;;;;;;53.63;19.73;;;;;;;-3.44;65.54;96209.06;4999767;28;20057;-81
2022/01/14 07:42:25;;;;;;;61.45;20.92;;;;;;;-3.38;65.05;96205.81;5016464;28;20049;-81
2022/01/14 07:44:51;;;;;;;63.13;20.65;;;;;;;-3.09;65.22;96235.63;4996233;28;20080;-81
2022/01/14 07:47:16;;;;;;;54.70;21.30;;;;;;;-3.53;65.37;96169.34;5000625;28;20038;-81
2022/01/14 07:49:42;;;;;;;55.03;21.50;;;;;;;-3.04;65.36;96226.38;4996498;28;20034;-81
2022/01/14 07:52:07;;;;;;;58.15;22.83;;;;;;;-3.39;65.69;96180.84;4996642;28;20050;-80
2022/01/14 07:54:33;;;;;;;55.90;21.45;;;;;;;-3.30;65.54;96190.25;4996253;28;20097;-81
2022/01/14 07:57:00;;;;;;;49.50;20.63;;;;;;;-3.45;65.30;96167.72;5028782;28;20038;-81
2022/01/14 07:59:29;;;;;;;57.75;21.77;;;;;;;-3.08;65.57;96219.09;4996576;28;20038;-81
2022/01/14 08:01:56;;;;;;;58.63;22.85;;;;;;;-3.77;65.68;96083.78;4996151;28;20441;-81
2022/01/14 08:04:22;;;;;;;53.60;21.52;;;;;;;-3.36;65.57;96146.00;4980753;28;20183;-81
2022/01/14 08:06:50;;;;;;;46.17;20.58;;;;;;;-3.15;64.84;96169.63;4998627;28;20109;-81
2022/01/14 08:09:17;;;;;;;59.55;20.77;;;;;;;-3.22;65.78;96156.50;4997294;28;20046;-81
2022/01/14 08:11:44;;;;;;;51.00;20.33;;;;;;;-3.61;65.74;96099.34;4997977;28;20064;-81
2022/01/14 08:14:11;;;;;;;42.92;20.13;;;;;;;-4.68;65.93;95938.09;4998820;28;20097;-82
2022/01/14 08:16:37;;;;;;;50.58;19.35;;;;;;;-2.78;66.01;96200.22;4997435;28;20063;-81
2022/01/14 08:19:02;;;;;;;59.53;20.45;;;;;;;-2.74;65.59;96198.91;4999567;28;20034;-81
2022/01/14 08:21:28;;;;;;;46.75;21.23;;;;;;;-3.96;65.77;95996.81;4999784;28;20066;-80
2022/01/14 08:23:53;;;;;;;51.08;20.05;;;;;;;-3.04;65.91;96121.75;4997517;28;20034;-81
2022/01/14 08:26:19;;;;;;;52.88;20.73;;;;;;;-3.25;66.16;96094.56;4997143;28;20030;-81
2022/01/14 08:28:45;;;;;;;61.58;23.27;;;;;;;-3.39;66.23;96068.50;4995816;28;20034;-81
2022/01/14 08:31:10;;;;;;;54.40;22.15;;;;;;;-3.31;65.91;96056.31;4999047;28;20045;-80
2022/01/14 08:33:36;;;;;;;61.85;23.75;;;;;;;-3.53;66.70;96012.94;5001356;28;20034;-81
2022/01/14 08:36:03;;;;;;;57.40;21.80;;;;;;;-2.66;67.05;96165.13;4997664;28;20038;-81
2022/01/14 08:38:28;;;;;;;59.50;21.17;;;;;;;-3.21;66.86;96049.19;4996632;28;20038;-79
2022/01/14 08:40:55;;;;;;;49.60;21.15;;;;;;;-3.02;66.50;96073.09;4996257;28;20490;-81
2022/01/14 08:43:20;;;;;;;56.35;22.88;;;;;;;-2.63;66.92;96141.44;4997488;28;20034;-81
2022/01/14 08:45:46;;;;;;;56.70;21.15;;;;;;;-2.36;66.67;96159.16;5033631;28;20045;-80
2022/01/14 08:48:12;;;;;;;50.92;22.70;;;;;;;-2.30;66.55;96168.09;5017351;28;20608;-81
2022/01/14 08:50:39;;;;;;;57.70;22.63;;;;;;;-2.17;67.18;96183.13;5014559;28;20066;-81
2022/01/14 08:53:08;;;;;;;50.88;21.95;;;;;;;-2.74;66.91;96085.47;4999018;28;20042;-80
2022/01/14 08:55:35;;;;;;;56.17;23.90;;;;;;;-2.05;66.54;96174.75;4999574;28;20038;-82
2022/01/14 08:58:01;;;;;;;57.03;22.80;;;;;;;-1.94;66.43;96160.56;5032551;28;20041;-81
2022/01/14 09:00:27;;;;;;;61.45;23.58;;;;;;;-2.54;66.64;96067.72;5031962;28;20110;-81
2022/01/14 09:02:54;;;;;;;55.45;22.50;;;;;;;-1.91;66.37;96156.84;5031680;28;20077;-81
2022/01/14 09:05:20;;;;;;;52.72;23.00;;;;;;;-1.92;66.39;96150.00;4997754;28;20054;-81
2022/01/14 09:07:46;;;;;;;48.50;21.50;;;;;;;-2.34;66.56;96068.88;5028739;28;20030;-81
2022/01/14 09:10:12;;;;;;;58.13;23.33;;;;;;;-2.52;66.55;96042.38;4997314;28;20527;-81
2022/01/14 09:12:37;;;;;;;56.17;22.17;;;;;;;-1.80;66.66;96146.03;4997352;28;20040;-81
2022/01/14 09:15:05;;;;;;;53.40;21.88;;;;;;;-1.80;66.92;96133.03;4997746;28;20109;-81
2022/01/14 09:17:31;;;;;;;50.25;20.67;;;;;;;-2.05;67.62;96083.78;5014951;28;20034;-81
2022/01/14 09:19:56;;;;;;;43.67;20.17;;;;;;;-2.27;68.28;96035.22;4996181;28;20042;-81
2022/01/14 09:22:22;;;;;;;55.95;20.52;;;;;;;-1.98;67.89;96073.50;5015034;28;20050;-82
2022/01/14 09:24:48;;;;;;;59.38;21.60;;;;;;;-1.86;67.39;96079.94;4997511;28;20130;-81
2022/01/14 09:27:15;;;;;;;45.28;18.65;;;;;;;-1.66;68.59;96088.03;5016973;28;20129;-81
2022/01/14 09:29:42;;;;;;;41.25;18.55;;;;;;;-1.52;68.74;96070.84;4998832;28;20119;-81
2022/01/14 09:32:08;;;;;;;52.70;18.92;;;;;;;-1.59;69.11;96042.13;5017517;28;20033;-81
2022/01/14 09:34:34;;;;;;;50.38;19.13;;;;;;;-1.60;69.02;96025.72;5031737;28;20038;-81
2022/01/14 09:37:00;;;;;;;41.55;17.40;;;;;;;-1.85;69.45;95969.75;5032334;28;20042;-81
2022/01/14 09:39:25;;;;;;;35.33;13.55;;;;;;;-1.22;70.23;96055.09;4998886;28;20109;-82
2022/01/14 09:41:51;;;;;;;41.42;14.73;;;;;;;-1.29;70.21;96042.97;5029993;28;20046;-81
2022/01/14 09:44:20;;;;;;;26.67;11.32;;;;;;;-0.74;70.53;96109.41;5015149;28;20054;-81
2022/01/14 09:46:53;;;;;;;24.85;10.70;;;;;;;-1.75;70.69;95933.88;5014737;28;20113;-81
2022/01/14 09:49:20;;;;;;;28.58;11.70;;;;;;;-0.98;70.37;96066.22;4997399;28;20065;-81
2022/01/14 09:51:46;;;;;;;26.45;10.48;;;;;;;-1.17;70.74;96005.13;5031749;28;20029;-81
2022/01/14 09:54:13;;;;;;;26.13;10.80;;;;;;;-1.02;70.28;96029.34;5032513;28;20116;-81
2022/01/14 09:56:41;;;;;;;32.35;12.07;;;;;;;-0.64;70.37;96057.84;4999363;28;20038;-81
2022/01/14 09:59:07;;;;;;;19.48;9.75;;;;;;;-0.48;71.12;96075.91;5031620;28;20045;-81
2022/01/14 10:01:41;;;;;;;28.65;12.70;;;;;;;-0.71;69.63;96007.47;5032816;28;20037;-82
2022/01/14 10:04:07;;;;;;;34.72;14.40;;;;;;;-0.96;69.66;95981.75;5036185;28;20034;-81
2022/01/14 10:06:51;;;;;;;29.50;13.07;;;;;;;-0.48;69.12;96060.25;5034437;28;20034;-81
2022/01/14 10:09:24;;;;;;;31.88;14.07;;;;;;;-0.93;69.43;95985.81;5037059;28;20500;-81
2022/01/14 10:12:05;;;;;;;21.20;11.27;;;;;;;-0.52;70.94;96065.00;5022717;28;20055;-81
2022/01/14 10:14:33;;;;;;;27.42;10.88;;;;;;;-0.49;71.30;96049.03;5016967;28;20057;-81
2022/01/14 10:17:01;;;;;;;22.30;10.80;;;;;;;-0.93;71.45;95972.78;4998104;28;20421;-79
2022/01/14 10:19:29;;;;;;;31.10;13.65;;;;;;;-1.06;70.96;95923.94;5015303;28;20026;-78
2022/01/14 10:21:56;;;;;;;24.83;11.40;;;;;;;-0.42;71.08;96023.03;5017012;28;20044;-78
2022/01/14 10:24:23;;;;;;;23.55;11.40;;;;;;;-0.91;70.81;95927.31;5016629;28;20417;-78
2022/01/14 10:26:52;;;;;;;22.38;9.95;;;;;;;-0.72;71.17;95964.19;5016496;28;20049;-78
2022/01/14 10:29:33;;;;;;;24.77;11.82;;;;;;;-0.30;71.04;96028.56;5014763;28;20030;-78
2022/01/14 10:32:02;;;;;;;19.83;8.85;;;;;;;-1.22;70.76;95867.69;5018931;28;20049;-81
2022/01/14 10:34:30;;;;;;;30.58;12.80;;;;;;;-0.33;70.73;95984.63;5001962;28;20026;-81
2022/01/14 10:37:14;;;;;;;26.38;11.90;;;;;;;-0.54;70.30;95944.56;5002466;28;20053;-83
2022/01/14 10:39:46;;;;;;;24.05;9.82;;;;;;;0.05;70.25;96009.47;5003866;28;20045;-81
2022/01/14 10:42:34;;;;;;;25.65;10.38;;;;;;;-0.51;69.87;95901.66;5000759;28;20108;-80
2022/01/14 10:45:23;;;;;;;24.00;11.60;;;;;;;0.07;69.91;95983.19;5001991;28;20120;-80
2022/01/14 10:48:05;;;;;;;27.23;9.63;;;;;;;0.21;69.88;95990.94;5020237;28;20369;-81
2022/01/14 10:50:38;;;;;;;21.38;9.02;;;;;;;0.24;69.83;95989.72;4999827;28;20133;-81
2022/01/14 10:53:10;;;;;;;19.80;8.63;;;;;;;0.31;69.56;95998.41;4997667;28;20053;-80
2022/01/14 10:55:39;;;;;;;17.98;9.35;;;;;;;-0.22;69.27;95887.66;4998918;28;20048;-80
2022/01/14 10:58:12;;;;;;;20.98;10.15;;;;;;;-0.29;69.33;95845.13;5001225;28;20046;-79
2022/01/14 11:00:44;;;;;;;18.70;8.30;;;;;;;0.47;68.65;95969.41;5018455;28;20089;-81
2022/01/14 11:03:09;;;;;;;;;;;;;;;0.65;68.25;95971.53;5034371;28;20535;-80
2022/01/14 11:05:35;;;;;;;25.70;9.63;;;;;;;0.76;68.16;95961.34;5016653;28;19921;-81
2022/01/14 11:08:04;;;;;;;22.77;8.27;;;;;;;0.14;67.65;95853.63;5018232;28;20485;-80
2022/01/14 11:10:33;;;;;;;19.10;8.85;;;;;;;0.32;67.69;95844.28;5000340;28;20095;-80
2022/01/14 11:13:03;;;;;;;23.00;9.07;;;;;;;1.25;66.54;95998.75;5000023;28;20037;-81
2022/01/14 11:15:33;;;;;;;17.23;8.10;;;;;;;1.17;65.73;95914.31;4999951;28;20086;-81
2022/01/14 11:18:03;;;;;;;19.02;8.77;;;;;;;1.34;65.48;95911.34;5000297;28;20099;-80
2022/01/14 11:20:36;;;;;;;15.45;8.10;;;;;;;1.15;64.89;95871.09;5019801;28;20059;-80
2022/01/14 11:23:22;;;;;;;20.35;8.40;;;;;;;1.05;64.39;95850.59;5019247;28;20037;-80
2022/01/14 11:26:06;;;;;;;15.95;8.00;;;;;;;1.66;64.44;95915.81;5004168;28;20092;-81
2022/01/14 11:28:47;;;;;;;22.00;7.35;;;;;;;1.14;63.78;95827.69;5003794;28;20069;-81
2022/01/14 11:31:25;;;;;;;21.80;9.03;;;;;;;1.84;63.82;95905.56;5003605;28;20049;-81
2022/01/14 11:33:51;;;;;;;18.67;8.63;;;;;;;1.73;63.59;95859.09;5036085;28;20293;-81
2022/01/14 11:36:16;;;;;;;21.48;9.32;;;;;;;1.69;63.08;95829.13;5001954;28;20095;-81
2022/01/14 11:38:55;;;;;;;21.13;9.52;;;;;;;2.17;62.84;95874.13;5002374;28;20044;-81
2022/01/14 11:41:57;;;;;;;25.40;9.63;;;;;;;2.18;62.57;95872.34;5001847;28;20054;-79
2022/01/14 11:44:41;;;;;;;23.70;10.45;;;;;;;2.15;62.99;95868.31;5033490;28;20144;-81
2022/01/14 11:47:07;;;;;;;26.38;10.93;;;;;;;2.28;62.80;95912.00;5033204;28;20084;-79